sensor_id;sensor_type;location;lat;lon;timestamp;pressure;altitude;pressure_sealevel;temperature;humidity
28289;BME280;15558;50.874;6.964;2023-01-05T00:01:56;101325.91;;;16.51;60.72
28289;BME280;15558;50.874;6.964;2023-01-05T00:04:32;101321.56;;;16.54;60.82
28289;BME280;15558;50.874;6.964;2023-01-05T00:07:05;101317.50;;;16.47;60.88
28289;BME280;15558;50.874;6.964;2023-01-05T00:09:31;101328.53;;;16.48;61.04
28289;BME280;15558;50.874;6.964;2023-01-05T00:12:00;101326.94;;;16.55;61.09
28289;BME280;15558;50.874;6.964;2023-01-05T00:14:47;101328.94;;;16.63;60.51
28289;BME280;15558;50.874;6.964;2023-01-05T00:17:31;101337.09;;;16.56;60.70
28289;BME280;15558;50.874;6.964;2023-01-05T00:20:19;101323.47;;;16.37;61.41
28289;BME280;15558;50.874;6.964;2023-01-05T00:23:06;101325.66;;;16.40;61.08
28289;BME280;15558;50.874;6.964;2023-01-05T00:25:39;101337.66;;;16.37;61.00
28289;BME280;15558;50.874;6.964;2023-01-05T00:28:08;101339.31;;;16.38;61.46
28289;BME280;15558;50.874;6.964;2023-01-05T00:30:57;101340.84;;;16.44;61.09
28289;BME280;15558;50.874;6.964;2023-01-05T00:33:35;101342.56;;;16.53;60.88
28289;BME280;15558;50.874;6.964;2023-01-05T00:36:01;101355.78;;;16.57;60.70
28289;BME280;15558;50.874;6.964;2023-01-05T00:38:42;101352.88;;;16.27;61.30
28289;BME280;15558;50.874;6.964;2023-01-05T00:41:10;101349.19;;;16.49;61.02
28289;BME280;15558;50.874;6.964;2023-01-05T00:43:36;101349.84;;;16.46;61.43
28289;BME280;15558;50.874;6.964;2023-01-05T00:46:02;101343.59;;;16.57;60.52
28289;BME280;15558;50.874;6.964;2023-01-05T00:51:39;101359.97;;;16.38;61.27
28289;BME280;15558;50.874;6.964;2023-01-05T00:54:11;101351.81;;;16.37;61.22
28289;BME280;15558;50.874;6.964;2023-01-05T00:56:52;101353.09;;;16.31;61.22
28289;BME280;15558;50.874;6.964;2023-01-05T00:59:30;101347.28;;;16.36;61.20
28289;BME280;15558;50.874;6.964;2023-01-05T01:01:59;101344.25;;;16.32;61.09
28289;BME280;15558;50.874;6.964;2023-01-05T01:04:37;101341.34;;;16.24;61.60
28289;BME280;15558;50.874;6.964;2023-01-05T01:07:16;101342.03;;;16.21;61.56
28289;BME280;15558;50.874;6.964;2023-01-05T01:09:50;101331.56;;;16.30;61.35
28289;BME280;15558;50.874;6.964;2023-01-05T01:12:19;101337.75;;;16.32;61.59
28289;BME280;15558;50.874;6.964;2023-01-05T01:14:54;101328.28;;;16.14;61.83
28289;BME280;15558;50.874;6.964;2023-01-05T01:17:20;101343.81;;;16.17;62.04
28289;BME280;15558;50.874;6.964;2023-01-05T01:20:06;101347.69;;;16.21;61.86
28289;BME280;15558;50.874;6.964;2023-01-05T01:22:35;101343.56;;;16.13;62.43
28289;BME280;15558;50.874;6.964;2023-01-05T01:25:01;101342.03;;;16.21;61.79
28289;BME280;15558;50.874;6.964;2023-01-05T01:27:31;101341.56;;;16.27;61.70
28289;BME280;15558;50.874;6.964;2023-01-05T01:29:57;101339.69;;;16.23;61.81
28289;BME280;15558;50.874;6.964;2023-01-05T01:32:26;101348.41;;;16.13;62.26
28289;BME280;15558;50.874;6.964;2023-01-05T01:34:52;101336.16;;;16.17;62.25
28289;BME280;15558;50.874;6.964;2023-01-05T01:37:29;101354.00;;;16.18;62.17
28289;BME280;15558;50.874;6.964;2023-01-05T01:40:07;101351.03;;;16.23;62.25
28289;BME280;15558;50.874;6.964;2023-01-05T01:42:36;101355.00;;;16.22;62.09
28289;BME280;15558;50.874;6.964;2023-01-05T01:45:16;101351.56;;;16.12;62.88
28289;BME280;15558;50.874;6.964;2023-01-05T01:47:53;101353.66;;;16.19;62.81
28289;BME280;15558;50.874;6.964;2023-01-05T01:50:31;101352.00;;;16.18;62.29
28289;BME280;15558;50.874;6.964;2023-01-05T01:53:14;101347.28;;;16.36;62.25
28289;BME280;15558;50.874;6.964;2023-01-05T01:55:43;101341.75;;;16.31;61.89
28289;BME280;15558;50.874;6.964;2023-01-05T01:58:13;101360.25;;;16.15;62.59
28289;BME280;15558;50.874;6.964;2023-01-05T02:00:41;101360.66;;;16.22;62.19
28289;BME280;15558;50.874;6.964;2023-01-05T02:03:07;101353.88;;;16.23;62.31
28289;BME280;15558;50.874;6.964;2023-01-05T02:05:39;101346.94;;;16.15;62.45
28289;BME280;15558;50.874;6.964;2023-01-05T02:08:23;101350.41;;;16.13;62.39
28289;BME280;15558;50.874;6.964;2023-01-05T02:13:47;101357.31;;;16.20;62.22
28289;BME280;15558;50.874;6.964;2023-01-05T02:16:33;101354.84;;;16.18;62.16
28289;BME280;15558;50.874;6.964;2023-01-05T02:19:22;101361.69;;;16.26;62.53
28289;BME280;15558;50.874;6.964;2023-01-05T02:22:01;101365.00;;;16.19;62.42
28289;BME280;15558;50.874;6.964;2023-01-05T02:30:00;101350.94;;;16.36;61.84
28289;BME280;15558;50.874;6.964;2023-01-05T02:38:14;101364.28;;;16.36;61.83
28289;BME280;15558;50.874;6.964;2023-01-05T02:40:48;101368.47;;;16.16;61.94
28289;BME280;15558;50.874;6.964;2023-01-05T02:43:17;101379.16;;;16.19;62.15
28289;BME280;15558;50.874;6.964;2023-01-05T02:46:10;101379.75;;;16.30;61.40
28289;BME280;15558;50.874;6.964;2023-01-05T02:48:39;101381.03;;;16.24;61.52
28289;BME280;15558;50.874;6.964;2023-01-05T02:54:08;101379.13;;;16.33;61.14
28289;BME280;15558;50.874;6.964;2023-01-05T02:57:11;101380.31;;;16.18;61.42
28289;BME280;15558;50.874;6.964;2023-01-05T02:59:31;101388.38;;;16.25;61.63
28289;BME280;15558;50.874;6.964;2023-01-05T03:02:09;101399.00;;;16.06;61.75
28289;BME280;15558;50.874;6.964;2023-01-05T03:04:47;101401.72;;;16.11;61.67
28289;BME280;15558;50.874;6.964;2023-01-05T03:07:26;101388.06;;;16.13;61.85
28289;BME280;15558;50.874;6.964;2023-01-05T03:09:53;101393.72;;;16.13;62.21
28289;BME280;15558;50.874;6.964;2023-01-05T03:12:32;101384.53;;;16.08;61.95
28289;BME280;15558;50.874;6.964;2023-01-05T03:15:31;101396.19;;;16.06;62.12
28289;BME280;15558;50.874;6.964;2023-01-05T03:17:59;101390.09;;;15.99;62.39
28289;BME280;15558;50.874;6.964;2023-01-05T03:20:30;101382.19;;;16.10;62.25
28289;BME280;15558;50.874;6.964;2023-01-05T03:23:03;101384.84;;;16.06;62.15
28289;BME280;15558;50.874;6.964;2023-01-05T03:25:48;101386.50;;;16.07;62.21
28289;BME280;15558;50.874;6.964;2023-01-05T03:37:50;101396.66;;;15.86;62.64
28289;BME280;15558;50.874;6.964;2023-01-05T03:40:23;101392.63;;;16.01;62.40
28289;BME280;15558;50.874;6.964;2023-01-05T03:42:50;101402.28;;;16.00;62.36
28289;BME280;15558;50.874;6.964;2023-01-05T03:45:16;101390.88;;;15.91;62.71
28289;BME280;15558;50.874;6.964;2023-01-05T03:47:47;101401.88;;;15.93;62.63
28289;BME280;15558;50.874;6.964;2023-01-05T03:50:16;101390.97;;;16.00;62.37
28289;BME280;15558;50.874;6.964;2023-01-05T03:52:52;101392.00;;;16.04;62.08
28289;BME280;15558;50.874;6.964;2023-01-05T03:55:23;101399.97;;;16.02;62.21
28289;BME280;15558;50.874;6.964;2023-01-05T03:57:49;101396.72;;;15.95;62.42
28289;BME280;15558;50.874;6.964;2023-01-05T04:00:22;101398.53;;;15.91;62.57
28289;BME280;15558;50.874;6.964;2023-01-05T04:03:00;101401.09;;;15.79;62.60
28289;BME280;15558;50.874;6.964;2023-01-05T04:05:29;101401.41;;;15.78;62.68
28289;BME280;15558;50.874;6.964;2023-01-05T04:07:55;101404.84;;;15.88;62.69
28289;BME280;15558;50.874;6.964;2023-01-05T04:10:34;101401.47;;;15.86;62.45
28289;BME280;15558;50.874;6.964;2023-01-05T04:13:05;101415.56;;;15.78;62.53
28289;BME280;15558;50.874;6.964;2023-01-05T04:15:32;101404.00;;;15.74;62.55
28289;BME280;15558;50.874;6.964;2023-01-05T04:18:15;101403.56;;;15.94;62.54
28289;BME280;15558;50.874;6.964;2023-01-05T04:20:43;101409.22;;;15.94;62.20
28289;BME280;15558;50.874;6.964;2023-01-05T04:23:12;101419.59;;;15.98;62.43
28289;BME280;15558;50.874;6.964;2023-01-05T04:25:38;101412.75;;;15.99;62.23
28289;BME280;15558;50.874;6.964;2023-01-05T04:28:04;101421.78;;;16.01;61.99
28289;BME280;15558;50.874;6.964;2023-01-05T04:31:11;101414.00;;;16.07;61.62
28289;BME280;15558;50.874;6.964;2023-01-05T04:33:35;101404.53;;;15.89;62.39
28289;BME280;15558;50.874;6.964;2023-01-05T04:36:05;101407.66;;;15.88;61.95
28289;BME280;15558;50.874;6.964;2023-01-05T04:38:37;101413.63;;;16.00;62.12
28289;BME280;15558;50.874;6.964;2023-01-05T04:41:03;101409.09;;;15.99;62.00
28289;BME280;15558;50.874;6.964;2023-01-05T04:43:31;101408.13;;;16.03;61.86
28289;BME280;15558;50.874;6.964;2023-01-05T04:45:59;101409.63;;;16.01;61.71
28289;BME280;15558;50.874;6.964;2023-01-05T04:48:26;101404.91;;;15.96;61.89
28289;BME280;15558;50.874;6.964;2023-01-05T04:50:59;101405.22;;;15.95;62.13
28289;BME280;15558;50.874;6.964;2023-01-05T04:53:36;101409.44;;;15.84;62.55
28289;BME280;15558;50.874;6.964;2023-01-05T04:56:03;101407.22;;;15.94;62.07
28289;BME280;15558;50.874;6.964;2023-01-05T04:58:38;101416.16;;;15.88;61.95
28289;BME280;15558;50.874;6.964;2023-01-05T05:01:04;101405.03;;;15.91;62.35
28289;BME280;15558;50.874;6.964;2023-01-05T05:03:33;101410.72;;;15.91;62.00
28289;BME280;15558;50.874;6.964;2023-01-05T05:05:59;101411.53;;;15.92;62.13
28289;BME280;15558;50.874;6.964;2023-01-05T05:08:26;101415.41;;;15.96;62.03
28289;BME280;15558;50.874;6.964;2023-01-05T05:10:52;101409.31;;;15.89;62.10
28289;BME280;15558;50.874;6.964;2023-01-05T05:13:18;101418.47;;;15.86;62.28
28289;BME280;15558;50.874;6.964;2023-01-05T05:15:56;101415.09;;;15.97;62.14
28289;BME280;15558;50.874;6.964;2023-01-05T05:18:22;101412.66;;;16.04;61.90
28289;BME280;15558;50.874;6.964;2023-01-05T05:20:49;101420.06;;;16.27;61.05
28289;BME280;15558;50.874;6.964;2023-01-05T05:23:18;101420.94;;;16.36;60.96
28289;BME280;15558;50.874;6.964;2023-01-05T05:25:49;101414.31;;;16.40;61.15
28289;BME280;15558;50.874;6.964;2023-01-05T05:28:18;101423.47;;;16.37;61.02
28289;BME280;15558;50.874;6.964;2023-01-05T05:30:44;101425.41;;;16.50;60.54
28289;BME280;15558;50.874;6.964;2023-01-05T05:33:18;101419.66;;;16.42;61.03
28289;BME280;15558;50.874;6.964;2023-01-05T05:35:43;101427.59;;;16.31;61.33
28289;BME280;15558;50.874;6.964;2023-01-05T05:38:10;101435.06;;;16.27;61.36
28289;BME280;15558;50.874;6.964;2023-01-05T05:40:38;101432.16;;;16.19;62.00
28289;BME280;15558;50.874;6.964;2023-01-05T05:43:14;101444.38;;;16.28;61.48
28289;BME280;15558;50.874;6.964;2023-01-05T05:45:41;101444.00;;;16.21;61.84
28289;BME280;15558;50.874;6.964;2023-01-05T05:48:10;101445.03;;;16.25;61.75
28289;BME280;15558;50.874;6.964;2023-01-05T05:50:39;101447.56;;;16.13;62.13
28289;BME280;15558;50.874;6.964;2023-01-05T05:53:05;101455.84;;;16.23;61.88
28289;BME280;15558;50.874;6.964;2023-01-05T05:55:34;101455.72;;;16.28;61.93
28289;BME280;15558;50.874;6.964;2023-01-05T05:58:00;101470.53;;;16.25;61.90
28289;BME280;15558;50.874;6.964;2023-01-05T06:00:26;101457.75;;;16.14;62.40
28289;BME280;15558;50.874;6.964;2023-01-05T06:02:52;101464.13;;;16.19;62.22
28289;BME280;15558;50.874;6.964;2023-01-05T06:05:40;101460.34;;;16.24;61.96
28289;BME280;15558;50.874;6.964;2023-01-05T06:08:05;101470.84;;;16.10;62.33
28289;BME280;15558;50.874;6.964;2023-01-05T06:10:31;101459.94;;;16.17;62.37
28289;BME280;15558;50.874;6.964;2023-01-05T06:12:57;101472.00;;;16.22;62.03
28289;BME280;15558;50.874;6.964;2023-01-05T06:15:23;101478.41;;;16.01;62.55
28289;BME280;15558;50.874;6.964;2023-01-05T06:17:49;101476.63;;;16.05;62.73
28289;BME280;15558;50.874;6.964;2023-01-05T06:20:19;101485.31;;;16.22;61.97
28289;BME280;15558;50.874;6.964;2023-01-05T06:22:53;101486.16;;;16.09;62.00
28289;BME280;15558;50.874;6.964;2023-01-05T06:25:32;101487.50;;;16.12;62.13
28289;BME280;15558;50.874;6.964;2023-01-05T06:30:55;101484.28;;;16.05;62.44
28289;BME280;15558;50.874;6.964;2023-01-05T06:34:14;101485.25;;;16.00;62.32
28289;BME280;15558;50.874;6.964;2023-01-05T06:36:49;101498.44;;;16.05;62.15
28289;BME280;15558;50.874;6.964;2023-01-05T06:39:25;101488.91;;;16.14;62.05
28289;BME280;15558;50.874;6.964;2023-01-05T06:45:28;101490.81;;;15.78;62.99
28289;BME280;15558;50.874;6.964;2023-01-05T06:48:01;101497.53;;;15.96;62.64
28289;BME280;15558;50.874;6.964;2023-01-05T06:51:02;101502.22;;;16.00;62.80
28289;BME280;15558;50.874;6.964;2023-01-05T06:53:50;101501.06;;;16.01;62.49
28289;BME280;15558;50.874;6.964;2023-01-05T07:08:36;101520.06;;;16.01;62.83
28289;BME280;15558;50.874;6.964;2023-01-05T07:11:25;101528.25;;;16.02;62.78
28289;BME280;15558;50.874;6.964;2023-01-05T07:13:57;101536.44;;;15.90;63.32
28289;BME280;15558;50.874;6.964;2023-01-05T07:16:39;101536.22;;;16.00;62.93
28289;BME280;15558;50.874;6.964;2023-01-05T07:25:29;101535.03;;;16.01;62.72
28289;BME280;15558;50.874;6.964;2023-01-05T07:31:02;101545.03;;;15.99;62.83
28289;BME280;15558;50.874;6.964;2023-01-05T07:33:31;101545.97;;;15.94;62.90
28289;BME280;15558;50.874;6.964;2023-01-05T07:36:01;101556.34;;;15.99;62.92
28289;BME280;15558;50.874;6.964;2023-01-05T07:38:32;101566.53;;;16.00;62.52
28289;BME280;15558;50.874;6.964;2023-01-05T07:40:59;101561.06;;;16.03;62.46
28289;BME280;15558;50.874;6.964;2023-01-05T07:43:28;101561.19;;;15.85;63.21
28289;BME280;15558;50.874;6.964;2023-01-05T07:46:00;101569.78;;;15.93;62.94
28289;BME280;15558;50.874;6.964;2023-01-05T07:48:27;101556.78;;;15.92;62.86
28289;BME280;15558;50.874;6.964;2023-01-05T07:51:11;101564.22;;;15.88;63.30
28289;BME280;15558;50.874;6.964;2023-01-05T07:54:01;101567.56;;;15.90;62.93
28289;BME280;15558;50.874;6.964;2023-01-05T07:56:30;101582.88;;;15.76;63.10
28289;BME280;15558;50.874;6.964;2023-01-05T07:58:59;101576.19;;;15.85;62.92
28289;BME280;15558;50.874;6.964;2023-01-05T08:01:25;101581.63;;;15.82;63.34
28289;BME280;15558;50.874;6.964;2023-01-05T08:03:50;101583.09;;;15.93;63.08
28289;BME280;15558;50.874;6.964;2023-01-05T08:06:17;101592.66;;;15.83;63.16
28289;BME280;15558;50.874;6.964;2023-01-05T08:08:44;101588.97;;;15.83;62.96
28289;BME280;15558;50.874;6.964;2023-01-05T08:11:11;101583.53;;;16.00;62.68
28289;BME280;15558;50.874;6.964;2023-01-05T08:13:40;101589.91;;;16.05;62.29
28289;BME280;15558;50.874;6.964;2023-01-05T08:16:31;101607.41;;;16.07;62.32
28289;BME280;15558;50.874;6.964;2023-01-05T08:19:00;101606.28;;;16.08;62.52
28289;BME280;15558;50.874;6.964;2023-01-05T08:21:26;101597.34;;;16.01;62.59
28289;BME280;15558;50.874;6.964;2023-01-05T08:23:52;101603.53;;;16.03;62.63
28289;BME280;15558;50.874;6.964;2023-01-05T08:26:19;101606.38;;;16.03;62.64
28289;BME280;15558;50.874;6.964;2023-01-05T08:28:49;101597.88;;;16.03;62.58
28289;BME280;15558;50.874;6.964;2023-01-05T08:31:17;101597.88;;;16.03;62.51
28289;BME280;15558;50.874;6.964;2023-01-05T08:33:43;101598.84;;;16.12;62.32
28289;BME280;15558;50.874;6.964;2023-01-05T08:36:13;101614.22;;;15.93;62.64
28289;BME280;15558;50.874;6.964;2023-01-05T08:38:42;101611.84;;;16.00;62.51
28289;BME280;15558;50.874;6.964;2023-01-05T08:41:18;101610.31;;;16.20;62.04
28289;BME280;15558;50.874;6.964;2023-01-05T08:43:48;101618.47;;;16.22;61.87
28289;BME280;15558;50.874;6.964;2023-01-05T08:46:16;101609.72;;;16.05;62.60
28289;BME280;15558;50.874;6.964;2023-01-05T08:48:42;101621.81;;;16.11;62.36
28289;BME280;15558;50.874;6.964;2023-01-05T08:51:17;101612.78;;;16.09;62.65
28289;BME280;15558;50.874;6.964;2023-01-05T08:53:51;101621.50;;;16.12;62.17
28289;BME280;15558;50.874;6.964;2023-01-05T08:56:17;101620.34;;;16.13;62.76
28289;BME280;15558;50.874;6.964;2023-01-05T08:58:43;101624.84;;;16.14;62.72
28289;BME280;15558;50.874;6.964;2023-01-05T09:01:12;101625.69;;;16.14;62.18
28289;BME280;15558;50.874;6.964;2023-01-05T09:03:38;101630.81;;;16.13;62.57
28289;BME280;15558;50.874;6.964;2023-01-05T09:06:05;101633.03;;;16.15;62.88
28289;BME280;15558;50.874;6.964;2023-01-05T09:08:32;101634.69;;;16.03;62.88
28289;BME280;15558;50.874;6.964;2023-01-05T09:11:09;101635.03;;;16.15;62.92
28289;BME280;15558;50.874;6.964;2023-01-05T09:13:37;101643.53;;;16.15;62.71
28289;BME280;15558;50.874;6.964;2023-01-05T09:16:10;101635.75;;;16.07;62.98
28289;BME280;15558;50.874;6.964;2023-01-05T09:18:55;101641.31;;;16.12;62.96
28289;BME280;15558;50.874;6.964;2023-01-05T09:21:29;101650.66;;;16.13;62.95
28289;BME280;15558;50.874;6.964;2023-01-05T09:24:06;101656.47;;;16.21;62.52
28289;BME280;15558;50.874;6.964;2023-01-05T09:26:35;101655.69;;;16.15;62.53
28289;BME280;15558;50.874;6.964;2023-01-05T09:29:01;101650.91;;;16.16;62.61
28289;BME280;15558;50.874;6.964;2023-01-05T09:31:30;101654.47;;;16.21;62.42
28289;BME280;15558;50.874;6.964;2023-01-05T09:34:42;101657.94;;;16.18;62.44
28289;BME280;15558;50.874;6.964;2023-01-05T09:36:45;101666.31;;;16.23;62.42
28289;BME280;15558;50.874;6.964;2023-01-05T09:39:11;101672.41;;;16.17;63.12
28289;BME280;15558;50.874;6.964;2023-01-05T09:41:39;101675.84;;;16.14;63.23
28289;BME280;15558;50.874;6.964;2023-01-05T09:44:53;101669.28;;;16.18;63.56
28289;BME280;15558;50.874;6.964;2023-01-05T09:46:54;101683.47;;;16.13;63.13
28289;BME280;15558;50.874;6.964;2023-01-05T09:49:21;101690.88;;;16.28;63.09
28289;BME280;15558;50.874;6.964;2023-01-05T09:51:48;101680.41;;;16.28;62.67
28289;BME280;15558;50.874;6.964;2023-01-05T09:54:20;101684.91;;;16.16;63.09
28289;BME280;15558;50.874;6.964;2023-01-05T09:56:47;101694.56;;;16.28;63.06
28289;BME280;15558;50.874;6.964;2023-01-05T09:59:14;101702.84;;;16.38;63.11
28289;BME280;15558;50.874;6.964;2023-01-05T10:01:42;101704.31;;;16.36;62.55
28289;BME280;15558;50.874;6.964;2023-01-05T10:09:54;101708.41;;;16.30;62.47
28289;BME280;15558;50.874;6.964;2023-01-05T10:12:25;101709.25;;;16.44;62.18
28289;BME280;15558;50.874;6.964;2023-01-05T10:15:16;101708.19;;;16.40;62.13
28289;BME280;15558;50.874;6.964;2023-01-05T10:17:55;101705.16;;;16.36;62.35
28289;BME280;15558;50.874;6.964;2023-01-05T10:20:27;101707.47;;;16.48;61.94
28289;BME280;15558;50.874;6.964;2023-01-05T10:29:47;101713.88;;;16.40;62.28
28289;BME280;15558;50.874;6.964;2023-01-05T10:40:33;101719.31;;;16.50;61.82
28289;BME280;15558;50.874;6.964;2023-01-05T10:46:21;101720.38;;;16.53;61.27
28289;BME280;15558;50.874;6.964;2023-01-05T10:49:00;101730.84;;;16.53;60.70
28289;BME280;15558;50.874;6.964;2023-01-05T10:51:31;101726.88;;;16.54;60.83
28289;BME280;15558;50.874;6.964;2023-01-05T10:54:02;101724.34;;;16.52;60.95
28289;BME280;15558;50.874;6.964;2023-01-05T10:56:37;101722.03;;;16.54;60.73
28289;BME280;15558;50.874;6.964;2023-01-05T10:59:30;101727.41;;;16.56;60.45
28289;BME280;15558;50.874;6.964;2023-01-05T11:01:57;101723.41;;;16.57;61.06
28289;BME280;15558;50.874;6.964;2023-01-05T11:04:29;101727.00;;;16.49;60.69
28289;BME280;15558;50.874;6.964;2023-01-05T11:07:16;101734.56;;;16.53;60.59
28289;BME280;15558;50.874;6.964;2023-01-05T11:09:58;101728.47;;;16.60;59.88
28289;BME280;15558;50.874;6.964;2023-01-05T11:12:38;101728.13;;;16.75;59.77
28289;BME280;15558;50.874;6.964;2023-01-05T11:15:09;101730.84;;;16.80;59.16
28289;BME280;15558;50.874;6.964;2023-01-05T11:17:39;101730.97;;;16.75;59.69
28289;BME280;15558;50.874;6.964;2023-01-05T11:20:23;101736.63;;;16.75;59.25
28289;BME280;15558;50.874;6.964;2023-01-05T11:22:51;101731.59;;;16.58;60.10
28289;BME280;15558;50.874;6.964;2023-01-05T11:25:30;101723.41;;;16.70;59.39
28289;BME280;15558;50.874;6.964;2023-01-05T11:28:20;101737.91;;;16.55;59.22
28289;BME280;15558;50.874;6.964;2023-01-05T11:33:38;101729.50;;;16.64;58.82
28289;BME280;15558;50.874;6.964;2023-01-05T11:36:21;101728.13;;;16.75;58.76
28289;BME280;15558;50.874;6.964;2023-01-05T11:39:01;101726.22;;;16.84;58.69
28289;BME280;15558;50.874;6.964;2023-01-05T11:41:28;101729.88;;;16.84;58.26
28289;BME280;15558;50.874;6.964;2023-01-05T11:44:24;101730.63;;;16.89;58.29
28289;BME280;15558;50.874;6.964;2023-01-05T11:46:53;101730.31;;;16.91;58.17
28289;BME280;15558;50.874;6.964;2023-01-05T11:49:41;101724.13;;;16.89;58.01
28289;BME280;15558;50.874;6.964;2023-01-05T11:52:22;101734.00;;;16.91;57.53
28289;BME280;15558;50.874;6.964;2023-01-05T11:55:24;101731.69;;;16.93;57.99
28289;BME280;15558;50.874;6.964;2023-01-05T11:57:57;101730.72;;;16.98;57.79
28289;BME280;15558;50.874;6.964;2023-01-05T12:05:55;101731.25;;;17.00;57.51
28289;BME280;15558;50.874;6.964;2023-01-05T12:11:04;101732.50;;;17.07;56.57
28289;BME280;15558;50.874;6.964;2023-01-05T12:21:34;101729.66;;;17.07;56.84
28289;BME280;15558;50.874;6.964;2023-01-05T12:27:05;101734.38;;;17.12;56.55
28289;BME280;15558;50.874;6.964;2023-01-05T12:32:47;101740.38;;;17.10;57.11
28289;BME280;15558;50.874;6.964;2023-01-05T12:35:30;101737.22;;;17.12;56.90
28289;BME280;15558;50.874;6.964;2023-01-05T12:43:57;101726.66;;;17.39;56.68
28289;BME280;15558;50.874;6.964;2023-01-05T12:49:15;101732.84;;;17.62;57.32
28289;BME280;15558;50.874;6.964;2023-01-05T12:51:54;101729.13;;;17.75;56.90
28289;BME280;15558;50.874;6.964;2023-01-05T12:54:48;101724.34;;;17.84;55.08
28289;BME280;15558;50.874;6.964;2023-01-05T12:57:16;101723.16;;;17.85;54.93
28289;BME280;15558;50.874;6.964;2023-01-05T12:59:58;101735.75;;;17.92;54.83
28289;BME280;15558;50.874;6.964;2023-01-05T13:02:28;101730.72;;;17.90;54.67
28289;BME280;15558;50.874;6.964;2023-01-05T13:10:31;101731.50;;;17.38;55.81
28289;BME280;15558;50.874;6.964;2023-01-05T13:13:11;101733.09;;;17.31;56.19
28289;BME280;15558;50.874;6.964;2023-01-05T13:18:16;101730.09;;;17.36;56.27
28289;BME280;15558;50.874;6.964;2023-01-05T13:21:06;101727.41;;;17.31;56.59
28289;BME280;15558;50.874;6.964;2023-01-05T13:23:34;101726.50;;;17.22;56.73
28289;BME280;15558;50.874;6.964;2023-01-05T13:26:20;101730.56;;;17.29;56.97
28289;BME280;15558;50.874;6.964;2023-01-05T13:28:52;101729.09;;;17.32;56.63
28289;BME280;15558;50.874;6.964;2023-01-05T13:31:24;101739.59;;;17.31;56.20
28289;BME280;15558;50.874;6.964;2023-01-05T13:39:52;101731.06;;;17.31;56.46
28289;BME280;15558;50.874;6.964;2023-01-05T13:53:11;101734.19;;;17.22;56.89
28289;BME280;15558;50.874;6.964;2023-01-05T13:55:52;101737.94;;;17.17;57.03
28289;BME280;15558;50.874;6.964;2023-01-05T14:01:40;101739.53;;;17.10;57.80
28289;BME280;15558;50.874;6.964;2023-01-05T14:04:23;101739.97;;;17.03;57.61
28289;BME280;15558;50.874;6.964;2023-01-05T14:06:53;101745.19;;;17.10;57.49
28289;BME280;15558;50.874;6.964;2023-01-05T14:18:32;101748.88;;;17.10;58.01
28289;BME280;15558;50.874;6.964;2023-01-05T14:23:04;101751.09;;;17.00;57.88
28289;BME280;15558;50.874;6.964;2023-01-05T14:26:13;101750.34;;;17.08;57.85
28289;BME280;15558;50.874;6.964;2023-01-05T14:28:40;101744.47;;;17.04;58.11
28289;BME280;15558;50.874;6.964;2023-01-05T14:36:23;101749.66;;;16.89;58.44
28289;BME280;15558;50.874;6.964;2023-01-05T14:38:51;101737.56;;;16.84;58.51
28289;BME280;15558;50.874;6.964;2023-01-05T14:41:19;101750.38;;;16.81;58.85
28289;BME280;15558;50.874;6.964;2023-01-05T14:44:04;101751.75;;;16.97;58.59
28289;BME280;15558;50.874;6.964;2023-01-05T14:49:36;101759.84;;;16.77;58.70
28289;BME280;15558;50.874;6.964;2023-01-05T15:01:58;101770.56;;;16.66;58.60
28289;BME280;15558;50.874;6.964;2023-01-05T15:04:45;101773.09;;;16.68;58.68
28289;BME280;15558;50.874;6.964;2023-01-05T15:16:41;101761.94;;;16.58;58.74
28289;BME280;15558;50.874;6.964;2023-01-05T15:33:15;101762.66;;;16.63;59.37
28289;BME280;15558;50.874;6.964;2023-01-05T15:36:09;101768.13;;;16.47;59.83
28289;BME280;15558;50.874;6.964;2023-01-05T15:38:44;101767.00;;;16.48;59.91
28289;BME280;15558;50.874;6.964;2023-01-05T15:41:26;101757.53;;;16.52;59.62
28289;BME280;15558;50.874;6.964;2023-01-05T15:44:00;101758.72;;;16.51;59.42
28289;BME280;15558;50.874;6.964;2023-01-05T15:46:46;101762.56;;;16.42;59.89
28289;BME280;15558;50.874;6.964;2023-01-05T15:49:18;101757.97;;;16.46;59.42
28289;BME280;15558;50.874;6.964;2023-01-05T15:51:48;101761.53;;;16.51;59.70
28289;BME280;15558;50.874;6.964;2023-01-05T15:54:34;101754.28;;;16.72;58.85
28289;BME280;15558;50.874;6.964;2023-01-05T15:57:01;101750.50;;;16.63;59.17
28289;BME280;15558;50.874;6.964;2023-01-05T15:59:29;101755.03;;;16.64;59.53
28289;BME280;15558;50.874;6.964;2023-01-05T16:01:58;101755.53;;;16.52;59.84
28289;BME280;15558;50.874;6.964;2023-01-05T16:04:27;101764.97;;;16.48;60.29
28289;BME280;15558;50.874;6.964;2023-01-05T16:10:14;101777.69;;;16.37;61.26
28289;BME280;15558;50.874;6.964;2023-01-05T16:12:44;101775.88;;;16.28;62.38
28289;BME280;15558;50.874;6.964;2023-01-05T16:15:32;101774.09;;;16.32;62.54
28289;BME280;15558;50.874;6.964;2023-01-05T16:18:03;101777.97;;;16.22;63.39
28289;BME280;15558;50.874;6.964;2023-01-05T16:20:34;101772.16;;;16.14;63.33
28289;BME280;15558;50.874;6.964;2023-01-05T16:23:36;101773.41;;;16.08;64.35
28289;BME280;15558;50.874;6.964;2023-01-05T16:26:16;101771.00;;;16.15;64.48
28289;BME280;15558;50.874;6.964;2023-01-05T16:29:27;101778.44;;;16.11;64.91
28289;BME280;15558;50.874;6.964;2023-01-05T16:44:10;101758.66;;;15.93;65.81
28289;BME280;15558;50.874;6.964;2023-01-05T17:05:37;101762.66;;;16.05;66.15
28289;BME280;15558;50.874;6.964;2023-01-05T17:08:06;101758.78;;;16.01;66.59
28289;BME280;15558;50.874;6.964;2023-01-05T17:10:44;101755.28;;;15.91;66.81
28289;BME280;15558;50.874;6.964;2023-01-05T17:13:12;101751.56;;;15.95;67.07
28289;BME280;15558;50.874;6.964;2023-01-05T17:15:52;101755.94;;;16.01;66.98